sensor_id;sensor_type;location;lat;lon;timestamp;P1;durP1;ratioP1;P2;durP2;ratioP2
75504;SDS011;64085;54.974;73.410;2023-10-19T00:00:36;6.70;;;2.92;;
75504;SDS011;64085;54.974;73.410;2023-10-19T00:03:06;7.00;;;3.00;;
75504;SDS011;64085;54.974;73.410;2023-10-19T00:05:32;5.80;;;3.08;;
75504;SDS011;64085;54.974;73.410;2023-10-19T00:07:58;6.53;;;3.28;;
75504;SDS011;64085;54.974;73.410;2023-10-19T00:10:25;9.07;;;3.55;;
75504;SDS011;64085;54.974;73.410;2023-10-19T00:12:54;7.63;;;3.53;;
75504;SDS011;64085;54.974;73.410;2023-10-19T00:15:25;7.18;;;3.63;;
75504;SDS011;64085;54.974;73.410;2023-10-19T00:17:55;11.25;;;4.10;;
75504;SDS011;64085;54.974;73.410;2023-10-19T00:20:20;8.73;;;5.20;;
75504;SDS011;64085;54.974;73.410;2023-10-19T00:22:55;8.88;;;4.15;;
75504;SDS011;64085;54.974;73.410;2023-10-19T00:25:22;6.65;;;4.88;;
75504;SDS011;64085;54.974;73.410;2023-10-19T00:27:49;9.40;;;4.38;;
75504;SDS011;64085;54.974;73.410;2023-10-19T00:30:14;9.43;;;4.45;;
75504;SDS011;64085;54.974;73.410;2023-10-19T00:32:43;8.00;;;4.50;;
75504;SDS011;64085;54.974;73.410;2023-10-19T00:35:09;12.70;;;4.13;;
75504;SDS011;64085;54.974;73.410;2023-10-19T00:37:53;9.95;;;4.35;;
75504;SDS011;64085;54.974;73.410;2023-10-19T00:40:20;7.70;;;3.70;;
75504;SDS011;64085;54.974;73.410;2023-10-19T00:43:02;10.23;;;4.38;;
75504;SDS011;64085;54.974;73.410;2023-10-19T00:45:31;7.65;;;3.80;;
75504;SDS011;64085;54.974;73.410;2023-10-19T00:47:58;6.60;;;3.05;;
75504;SDS011;64085;54.974;73.410;2023-10-19T00:50:24;5.22;;;3.15;;
75504;SDS011;64085;54.974;73.410;2023-10-19T00:52:52;9.90;;;3.70;;
75504;SDS011;64085;54.974;73.410;2023-10-19T00:55:18;7.80;;;3.80;;
75504;SDS011;64085;54.974;73.410;2023-10-19T00:57:50;12.88;;;4.60;;
75504;SDS011;64085;54.974;73.410;2023-10-19T01:00:20;6.68;;;3.83;;
75504;SDS011;64085;54.974;73.410;2023-10-19T01:02:59;10.20;;;4.20;;
75504;SDS011;64085;54.974;73.410;2023-10-19T01:05:26;8.45;;;3.95;;
75504;SDS011;64085;54.974;73.410;2023-10-19T01:07:57;7.88;;;3.58;;
75504;SDS011;64085;54.974;73.410;2023-10-19T01:10:26;8.30;;;3.88;;
75504;SDS011;64085;54.974;73.410;2023-10-19T01:12:53;7.75;;;3.88;;
75504;SDS011;64085;54.974;73.410;2023-10-19T01:15:20;10.85;;;4.75;;
75504;SDS011;64085;54.974;73.410;2023-10-19T01:17:57;7.35;;;4.53;;
75504;SDS011;64085;54.974;73.410;2023-10-19T01:20:24;9.32;;;4.60;;
75504;SDS011;64085;54.974;73.410;2023-10-19T01:25:46;9.23;;;3.78;;
75504;SDS011;64085;54.974;73.410;2023-10-19T01:28:24;6.70;;;3.63;;
75504;SDS011;64085;54.974;73.410;2023-10-19T01:30:53;12.50;;;3.83;;
75504;SDS011;64085;54.974;73.410;2023-10-19T01:33:19;5.97;;;2.67;;
75504;SDS011;64085;54.974;73.410;2023-10-19T01:35:45;6.57;;;3.20;;
75504;SDS011;64085;54.974;73.410;2023-10-19T01:38:29;4.70;;;2.78;;
75504;SDS011;64085;54.974;73.410;2023-10-19T01:40:59;4.22;;;2.83;;
75504;SDS011;64085;54.974;73.410;2023-10-19T01:43:27;8.10;;;3.58;;
75504;SDS011;64085;54.974;73.410;2023-10-19T01:45:59;11.85;;;4.05;;
75504;SDS011;64085;54.974;73.410;2023-10-19T01:48:36;8.70;;;2.95;;
75504;SDS011;64085;54.974;73.410;2023-10-19T01:51:03;8.68;;;3.20;;
75504;SDS011;64085;54.974;73.410;2023-10-19T01:53:33;5.32;;;3.15;;
75504;SDS011;64085;54.974;73.410;2023-10-19T01:56:00;9.80;;;3.35;;
75504;SDS011;64085;54.974;73.410;2023-10-19T01:58:25;7.05;;;3.92;;
75504;SDS011;64085;54.974;73.410;2023-10-19T02:00:52;9.68;;;3.70;;
75504;SDS011;64085;54.974;73.410;2023-10-19T02:03:25;6.70;;;3.78;;
75504;SDS011;64085;54.974;73.410;2023-10-19T02:05:59;7.80;;;3.78;;
75504;SDS011;64085;54.974;73.410;2023-10-19T02:08:25;11.07;;;4.10;;
75504;SDS011;64085;54.974;73.410;2023-10-19T02:10:51;13.15;;;4.47;;
75504;SDS011;64085;54.974;73.410;2023-10-19T02:13:17;7.88;;;5.03;;
75504;SDS011;64085;54.974;73.410;2023-10-19T02:15:43;10.18;;;4.45;;
75504;SDS011;64085;54.974;73.410;2023-10-19T02:18:09;9.07;;;4.25;;
75504;SDS011;64085;54.974;73.410;2023-10-19T02:20:35;13.25;;;4.88;;
75504;SDS011;64085;54.974;73.410;2023-10-19T02:23:04;11.52;;;4.82;;
75504;SDS011;64085;54.974;73.410;2023-10-19T02:25:30;7.43;;;4.30;;
75504;SDS011;64085;54.974;73.410;2023-10-19T02:28:04;14.52;;;5.90;;
75504;SDS011;64085;54.974;73.410;2023-10-19T02:30:34;11.05;;;5.47;;
75504;SDS011;64085;54.974;73.410;2023-10-19T02:33:00;9.52;;;5.25;;
75504;SDS011;64085;54.974;73.410;2023-10-19T02:35:26;12.85;;;5.10;;
75504;SDS011;64085;54.974;73.410;2023-10-19T02:37:53;12.95;;;5.65;;
75504;SDS011;64085;54.974;73.410;2023-10-19T02:40:18;13.15;;;6.65;;
75504;SDS011;64085;54.974;73.410;2023-10-19T02:42:49;13.73;;;5.93;;
75504;SDS011;64085;54.974;73.410;2023-10-19T02:45:18;15.50;;;6.03;;
75504;SDS011;64085;54.974;73.410;2023-10-19T02:47:44;16.02;;;6.85;;
75504;SDS011;64085;54.974;73.410;2023-10-19T02:50:10;13.40;;;6.28;;
75504;SDS011;64085;54.974;73.410;2023-10-19T02:52:38;15.88;;;6.47;;
75504;SDS011;64085;54.974;73.410;2023-10-19T02:55:06;15.15;;;6.30;;
75504;SDS011;64085;54.974;73.410;2023-10-19T02:57:31;13.60;;;6.85;;
75504;SDS011;64085;54.974;73.410;2023-10-19T02:59:57;14.77;;;5.82;;
75504;SDS011;64085;54.974;73.410;2023-10-19T03:02:24;15.73;;;7.35;;
75504;SDS011;64085;54.974;73.410;2023-10-19T03:04:52;13.27;;;6.57;;
75504;SDS011;64085;54.974;73.410;2023-10-19T03:07:18;11.70;;;6.78;;
75504;SDS011;64085;54.974;73.410;2023-10-19T03:09:43;11.23;;;5.13;;
75504;SDS011;64085;54.974;73.410;2023-10-19T03:12:18;12.32;;;6.28;;
75504;SDS011;64085;54.974;73.410;2023-10-19T03:14:46;12.93;;;5.60;;
75504;SDS011;64085;54.974;73.410;2023-10-19T03:17:13;10.57;;;5.68;;
75504;SDS011;64085;54.974;73.410;2023-10-19T03:19:39;13.30;;;5.97;;
75504;SDS011;64085;54.974;73.410;2023-10-19T03:22:05;13.27;;;5.93;;
75504;SDS011;64085;54.974;73.410;2023-10-19T03:24:31;12.27;;;4.88;;
75504;SDS011;64085;54.974;73.410;2023-10-19T03:27:08;12.77;;;6.10;;
75504;SDS011;64085;54.974;73.410;2023-10-19T03:29:54;14.18;;;5.07;;
75504;SDS011;64085;54.974;73.410;2023-10-19T03:32:26;13.55;;;5.65;;
75504;SDS011;64085;54.974;73.410;2023-10-19T03:34:52;14.85;;;5.07;;
75504;SDS011;64085;54.974;73.410;2023-10-19T03:37:21;9.63;;;4.63;;
75504;SDS011;64085;54.974;73.410;2023-10-19T03:39:47;9.88;;;4.30;;
75504;SDS011;64085;54.974;73.410;2023-10-19T03:42:13;12.10;;;4.45;;
75504;SDS011;64085;54.974;73.410;2023-10-19T03:44:39;11.45;;;4.03;;
75504;SDS011;64085;54.974;73.410;2023-10-19T03:47:15;9.50;;;4.07;;
75504;SDS011;64085;54.974;73.410;2023-10-19T03:49:51;10.00;;;5.03;;
75504;SDS011;64085;54.974;73.410;2023-10-19T03:52:17;8.65;;;3.58;;
75504;SDS011;64085;54.974;73.410;2023-10-19T03:54:42;7.93;;;4.18;;
75504;SDS011;64085;54.974;73.410;2023-10-19T03:57:12;8.73;;;3.75;;
75504;SDS011;64085;54.974;73.410;2023-10-19T03:59:41;7.72;;;4.03;;
75504;SDS011;64085;54.974;73.410;2023-10-19T04:02:09;12.07;;;4.28;;
75504;SDS011;64085;54.974;73.410;2023-10-19T04:04:35;10.77;;;4.63;;
75504;SDS011;64085;54.974;73.410;2023-10-19T04:07:01;12.07;;;3.92;;
75504;SDS011;64085;54.974;73.410;2023-10-19T04:09:35;9.77;;;4.50;;
75504;SDS011;64085;54.974;73.410;2023-10-19T04:12:14;8.95;;;4.32;;
75504;SDS011;64085;54.974;73.410;2023-10-19T04:14:42;6.65;;;3.63;;
75504;SDS011;64085;54.974;73.410;2023-10-19T04:17:07;6.63;;;4.07;;
75504;SDS011;64085;54.974;73.410;2023-10-19T04:19:37;7.70;;;4.18;;
75504;SDS011;64085;54.974;73.410;2023-10-19T04:22:03;7.00;;;3.30;;
75504;SDS011;64085;54.974;73.410;2023-10-19T04:24:29;7.57;;;3.40;;
75504;SDS011;64085;54.974;73.410;2023-10-19T04:29:24;9.95;;;3.03;;
75504;SDS011;64085;54.974;73.410;2023-10-19T04:31:52;7.68;;;3.75;;
75504;SDS011;64085;54.974;73.410;2023-10-19T04:34:21;9.90;;;3.20;;
75504;SDS011;64085;54.974;73.410;2023-10-19T04:36:47;8.50;;;3.50;;
75504;SDS011;64085;54.974;73.410;2023-10-19T04:39:13;7.95;;;3.10;;
75504;SDS011;64085;54.974;73.410;2023-10-19T04:41:39;5.78;;;3.20;;
75504;SDS011;64085;54.974;73.410;2023-10-19T04:44:05;9.27;;;2.90;;
75504;SDS011;64085;54.974;73.410;2023-10-19T04:46:33;7.68;;;3.65;;
75504;SDS011;64085;54.974;73.410;2023-10-19T04:48:59;7.60;;;2.90;;
75504;SDS011;64085;54.974;73.410;2023-10-19T04:51:24;5.65;;;2.20;;
75504;SDS011;64085;54.974;73.410;2023-10-19T04:53:50;4.60;;;2.97;;
75504;SDS011;64085;54.974;73.410;2023-10-19T04:56:15;6.70;;;3.70;;
75504;SDS011;64085;54.974;73.410;2023-10-19T04:58:41;5.97;;;2.35;;
75504;SDS011;64085;54.974;73.410;2023-10-19T05:01:06;6.13;;;2.70;;
75504;SDS011;64085;54.974;73.410;2023-10-19T05:03:32;6.22;;;2.70;;
75504;SDS011;64085;54.974;73.410;2023-10-19T05:05:58;4.85;;;2.58;;
75504;SDS011;64085;54.974;73.410;2023-10-19T05:08:23;6.72;;;2.83;;
75504;SDS011;64085;54.974;73.410;2023-10-19T05:10:53;3.70;;;2.28;;
75504;SDS011;64085;54.974;73.410;2023-10-19T05:13:20;7.75;;;2.63;;
75504;SDS011;64085;54.974;73.410;2023-10-19T05:15:45;6.70;;;2.35;;
75504;SDS011;64085;54.974;73.410;2023-10-19T05:18:10;8.38;;;2.70;;
75504;SDS011;64085;54.974;73.410;2023-10-19T05:20:37;5.38;;;2.35;;
75504;SDS011;64085;54.974;73.410;2023-10-19T05:23:08;5.05;;;1.77;;
75504;SDS011;64085;54.974;73.410;2023-10-19T05:25:34;5.45;;;2.17;;
75504;SDS011;64085;54.974;73.410;2023-10-19T05:28:02;6.45;;;2.40;;
75504;SDS011;64085;54.974;73.410;2023-10-19T05:30:27;4.32;;;1.88;;
75504;SDS011;64085;54.974;73.410;2023-10-19T05:32:52;5.18;;;1.92;;
75504;SDS011;64085;54.974;73.410;2023-10-19T05:35:18;2.42;;;1.40;;
75504;SDS011;64085;54.974;73.410;2023-10-19T05:37:51;6.50;;;1.67;;
75504;SDS011;64085;54.974;73.410;2023-10-19T05:40:17;6.07;;;1.70;;
75504;SDS011;64085;54.974;73.410;2023-10-19T05:42:44;5.35;;;1.90;;
75504;SDS011;64085;54.974;73.410;2023-10-19T05:45:11;7.13;;;1.40;;
75504;SDS011;64085;54.974;73.410;2023-10-19T05:47:38;5.53;;;1.63;;
75504;SDS011;64085;54.974;73.410;2023-10-19T05:50:04;4.85;;;1.38;;
75504;SDS011;64085;54.974;73.410;2023-10-19T05:52:29;2.67;;;1.10;;
75504;SDS011;64085;54.974;73.410;2023-10-19T05:54:55;4.15;;;1.48;;
75504;SDS011;64085;54.974;73.410;2023-10-19T05:57:20;3.55;;;1.20;;
75504;SDS011;64085;54.974;73.410;2023-10-19T05:59:47;2.30;;;1.02;;
75504;SDS011;64085;54.974;73.410;2023-10-19T06:02:13;4.95;;;1.40;;
75504;SDS011;64085;54.974;73.410;2023-10-19T06:04:38;2.67;;;1.10;;
75504;SDS011;64085;54.974;73.410;2023-10-19T06:07:03;1.40;;;1.08;;
75504;SDS011;64085;54.974;73.410;2023-10-19T06:09:29;2.10;;;1.00;;
75504;SDS011;64085;54.974;73.410;2023-10-19T06:11:57;1.48;;;1.20;;
75504;SDS011;64085;54.974;73.410;2023-10-19T06:14:23;3.53;;;1.80;;
75504;SDS011;64085;54.974;73.410;2023-10-19T06:16:48;2.55;;;1.10;;
75504;SDS011;64085;54.974;73.410;2023-10-19T06:19:13;5.75;;;1.60;;
75504;SDS011;64085;54.974;73.410;2023-10-19T06:21:41;5.05;;;1.25;;
75504;SDS011;64085;54.974;73.410;2023-10-19T06:24:06;6.68;;;1.77;;
75504;SDS011;64085;54.974;73.410;2023-10-19T06:26:32;6.35;;;1.50;;
75504;SDS011;64085;54.974;73.410;2023-10-19T06:28:57;1.25;;;1.10;;
75504;SDS011;64085;54.974;73.410;2023-10-19T06:31:27;4.03;;;1.40;;
75504;SDS011;64085;54.974;73.410;2023-10-19T06:33:53;2.00;;;1.60;;
75504;SDS011;64085;54.974;73.410;2023-10-19T06:36:18;3.50;;;1.65;;
75504;SDS011;64085;54.974;73.410;2023-10-19T06:38:44;3.60;;;1.50;;
75504;SDS011;64085;54.974;73.410;2023-10-19T06:41:10;4.50;;;1.15;;
75504;SDS011;64085;54.974;73.410;2023-10-19T06:43:37;2.92;;;1.02;;
75504;SDS011;64085;54.974;73.410;2023-10-19T06:46:02;3.65;;;1.35;;
75504;SDS011;64085;54.974;73.410;2023-10-19T06:48:28;2.92;;;0.85;;
75504;SDS011;64085;54.974;73.410;2023-10-19T06:50:55;2.80;;;0.88;;
75504;SDS011;64085;54.974;73.410;2023-10-19T06:53:21;1.15;;;1.05;;
75504;SDS011;64085;54.974;73.410;2023-10-19T06:55:47;5.00;;;2.53;;
75504;SDS011;64085;54.974;73.410;2023-10-19T06:58:13;2.92;;;1.60;;
75504;SDS011;64085;54.974;73.410;2023-10-19T07:00:40;5.55;;;1.20;;
75504;SDS011;64085;54.974;73.410;2023-10-19T07:03:08;2.28;;;1.45;;
75504;SDS011;64085;54.974;73.410;2023-10-19T07:05:34;5.50;;;1.10;;
75504;SDS011;64085;54.974;73.410;2023-10-19T07:07:59;2.40;;;0.90;;
75504;SDS011;64085;54.974;73.410;2023-10-19T07:10:26;2.50;;;1.23;;
75504;SDS011;64085;54.974;73.410;2023-10-19T07:12:56;2.72;;;0.90;;
75504;SDS011;64085;54.974;73.410;2023-10-19T07:15:22;2.17;;;1.00;;
75504;SDS011;64085;54.974;73.410;2023-10-19T07:17:49;3.55;;;1.10;;
75504;SDS011;64085;54.974;73.410;2023-10-19T07:20:16;3.75;;;1.10;;
75504;SDS011;64085;54.974;73.410;2023-10-19T07:22:51;1.95;;;1.20;;
75504;SDS011;64085;54.974;73.410;2023-10-19T07:25:17;1.50;;;1.17;;
75504;SDS011;64085;54.974;73.410;2023-10-19T07:30:11;1.17;;;0.80;;
75504;SDS011;64085;54.974;73.410;2023-10-19T07:32:40;4.13;;;1.35;;
75504;SDS011;64085;54.974;73.410;2023-10-19T07:35:05;2.75;;;0.98;;
75504;SDS011;64085;54.974;73.410;2023-10-19T07:37:31;3.08;;;1.45;;
75504;SDS011;64085;54.974;73.410;2023-10-19T07:39:56;3.10;;;0.93;;
75504;SDS011;64085;54.974;73.410;2023-10-19T07:42:25;2.42;;;1.13;;
75504;SDS011;64085;54.974;73.410;2023-10-19T07:44:51;2.72;;;1.25;;
75504;SDS011;64085;54.974;73.410;2023-10-19T07:47:16;2.50;;;1.05;;
75504;SDS011;64085;54.974;73.410;2023-10-19T07:49:42;5.15;;;0.90;;
75504;SDS011;64085;54.974;73.410;2023-10-19T07:52:08;2.00;;;1.33;;
75504;SDS011;64085;54.974;73.410;2023-10-19T07:54:38;2.80;;;0.98;;
75504;SDS011;64085;54.974;73.410;2023-10-19T07:57:04;5.03;;;2.30;;
75504;SDS011;64085;54.974;73.410;2023-10-19T07:59:33;6.07;;;1.77;;
75504;SDS011;64085;54.974;73.410;2023-10-19T08:01:59;1.98;;;1.52;;
75504;SDS011;64085;54.974;73.410;2023-10-19T08:04:28;2.10;;;1.17;;
75504;SDS011;64085;54.974;73.410;2023-10-19T08:06:53;2.40;;;0.93;;
75504;SDS011;64085;54.974;73.410;2023-10-19T08:09:20;1.45;;;1.13;;
75504;SDS011;64085;54.974;73.410;2023-10-19T08:11:50;5.55;;;1.67;;
75504;SDS011;64085;54.974;73.410;2023-10-19T08:14:23;2.15;;;1.15;;
75504;SDS011;64085;54.974;73.410;2023-10-19T08:16:50;2.63;;;1.10;;
75504;SDS011;64085;54.974;73.410;2023-10-19T08:19:16;3.05;;;1.30;;
75504;SDS011;64085;54.974;73.410;2023-10-19T08:21:41;4.10;;;1.35;;
75504;SDS011;64085;54.974;73.410;2023-10-19T08:24:07;2.58;;;1.02;;
75504;SDS011;64085;54.974;73.410;2023-10-19T08:26:39;3.42;;;1.63;;
75504;SDS011;64085;54.974;73.410;2023-10-19T08:29:04;1.50;;;0.90;;
75504;SDS011;64085;54.974;73.410;2023-10-19T08:31:38;1.77;;;1.10;;
75504;SDS011;64085;54.974;73.410;2023-10-19T08:34:05;5.13;;;1.48;;
75504;SDS011;64085;54.974;73.410;2023-10-19T08:36:30;3.72;;;1.90;;
75504;SDS011;64085;54.974;73.410;2023-10-19T08:38:56;1.77;;;1.30;;
75504;SDS011;64085;54.974;73.410;2023-10-19T08:41:22;6.25;;;1.38;;
75504;SDS011;64085;54.974;73.410;2023-10-19T08:43:48;3.15;;;1.10;;
75504;SDS011;64085;54.974;73.410;2023-10-19T08:46:15;1.50;;;0.90;;
75504;SDS011;64085;54.974;73.410;2023-10-19T08:48:40;1.55;;;1.33;;
75504;SDS011;64085;54.974;73.410;2023-10-19T08:51:09;2.72;;;1.40;;
75504;SDS011;64085;54.974;73.410;2023-10-19T08:53:38;3.90;;;1.08;;
75504;SDS011;64085;54.974;73.410;2023-10-19T08:56:09;1.30;;;0.95;;
75504;SDS011;64085;54.974;73.410;2023-10-19T08:58:35;2.20;;;1.40;;
75504;SDS011;64085;54.974;73.410;2023-10-19T09:01:01;4.25;;;1.13;;
75504;SDS011;64085;54.974;73.410;2023-10-19T09:03:32;4.90;;;1.60;;
75504;SDS011;64085;54.974;73.410;2023-10-19T09:06:00;6.53;;;1.80;;
75504;SDS011;64085;54.974;73.410;2023-10-19T09:08:25;6.15;;;1.80;;
75504;SDS011;64085;54.974;73.410;2023-10-19T09:11:12;4.47;;;1.73;;
75504;SDS011;64085;54.974;73.410;2023-10-19T09:13:42;4.82;;;1.73;;
75504;SDS011;64085;54.974;73.410;2023-10-19T09:16:09;4.85;;;1.65;;
75504;SDS011;64085;54.974;73.410;2023-10-19T09:18:35;1.63;;;1.10;;
75504;SDS011;64085;54.974;73.410;2023-10-19T09:21:00;3.17;;;1.50;;
75504;SDS011;64085;54.974;73.410;2023-10-19T09:23:32;1.55;;;1.38;;
75504;SDS011;64085;54.974;73.410;2023-10-19T09:25:59;2.63;;;1.30;;
75504;SDS011;64085;54.974;73.410;2023-10-19T09:28:33;3.65;;;1.30;;
75504;SDS011;64085;54.974;73.410;2023-10-19T09:30:59;2.72;;;1.40;;
75504;SDS011;64085;54.974;73.410;2023-10-19T09:33:25;4.03;;;1.67;;
75504;SDS011;64085;54.974;73.410;2023-10-19T09:35:51;4.68;;;1.40;;
75504;SDS011;64085;54.974;73.410;2023-10-19T09:38:22;4.85;;;1.80;;
75504;SDS011;64085;54.974;73.410;2023-10-19T09:40:48;4.32;;;1.60;;
75504;SDS011;64085;54.974;73.410;2023-10-19T09:43:37;2.88;;;1.30;;
75504;SDS011;64085;54.974;73.410;2023-10-19T09:46:07;2.35;;;1.13;;
75504;SDS011;64085;54.974;73.410;2023-10-19T09:48:34;2.22;;;1.50;;
75504;SDS011;64085;54.974;73.410;2023-10-19T09:51:02;2.65;;;1.45;;
75504;SDS011;64085;54.974;73.410;2023-10-19T09:53:29;3.67;;;1.48;;
75504;SDS011;64085;54.974;73.410;2023-10-19T09:55:56;3.65;;;1.20;;
75504;SDS011;64085;54.974;73.410;2023-10-19T09:58:27;2.35;;;1.02;;
75504;SDS011;64085;54.974;73.410;2023-10-19T10:00:57;3.88;;;1.63;;
75504;SDS011;64085;54.974;73.410;2023-10-19T10:06:07;5.05;;;1.80;;
75504;SDS011;64085;54.974;73.410;2023-10-19T10:08:34;2.08;;;1.10;;
75504;SDS011;64085;54.974;73.410;2023-10-19T10:11:12;5.68;;;1.45;;
75504;SDS011;64085;54.974;73.410;2023-10-19T10:13:38;1.75;;;1.15;;
75504;SDS011;64085;54.974;73.410;2023-10-19T10:16:04;3.08;;;1.15;;
75504;SDS011;64085;54.974;73.410;2023-10-19T10:18:33;4.15;;;1.05;;
75504;SDS011;64085;54.974;73.410;2023-10-19T10:21:13;2.28;;;0.95;;
75504;SDS011;64085;54.974;73.410;2023-10-19T10:23:58;1.85;;;0.90;;
75504;SDS011;64085;54.974;73.410;2023-10-19T10:26:25;2.17;;;1.08;;
75504;SDS011;64085;54.974;73.410;2023-10-19T10:31:35;7.55;;;1.55;;
75504;SDS011;64085;54.974;73.410;2023-10-19T10:34:05;2.45;;;1.17;;
75504;SDS011;64085;54.974;73.410;2023-10-19T10:36:56;2.67;;;1.48;;
75504;SDS011;64085;54.974;73.410;2023-10-19T10:39:19;5.57;;;2.05;;
75504;SDS011;64085;54.974;73.410;2023-10-19T10:41:44;3.28;;;1.95;;
75504;SDS011;64085;54.974;73.410;2023-10-19T10:44:11;5.57;;;2.25;;
75504;SDS011;64085;54.974;73.410;2023-10-19T10:46:36;3.97;;;2.10;;
75504;SDS011;64085;54.974;73.410;2023-10-19T10:49:08;5.07;;;1.73;;
75504;SDS011;64085;54.974;73.410;2023-10-19T10:54:00;3.17;;;1.55;;
75504;SDS011;64085;54.974;73.410;2023-10-19T10:56:25;6.05;;;2.00;;
75504;SDS011;64085;54.974;73.410;2023-10-19T10:58:51;4.32;;;1.70;;
75504;SDS011;64085;54.974;73.410;2023-10-19T11:01:29;1.63;;;1.13;;
75504;SDS011;64085;54.974;73.410;2023-10-19T11:04:08;1.23;;;0.70;;
75504;SDS011;64085;54.974;73.410;2023-10-19T11:06:45;3.08;;;1.00;;
75504;SDS011;64085;54.974;73.410;2023-10-19T11:09:10;1.40;;;0.90;;
75504;SDS011;64085;54.974;73.410;2023-10-19T11:11:39;2.72;;;1.08;;
75504;SDS011;64085;54.974;73.410;2023-10-19T11:14:11;2.00;;;0.90;;
75504;SDS011;64085;54.974;73.410;2023-10-19T11:16:36;2.22;;;1.55;;
75504;SDS011;64085;54.974;73.410;2023-10-19T11:19:04;1.38;;;0.80;;
75504;SDS011;64085;54.974;73.410;2023-10-19T11:21:30;2.17;;;1.10;;
75504;SDS011;64085;54.974;73.410;2023-10-19T11:23:55;1.40;;;1.10;;
75504;SDS011;64085;54.974;73.410;2023-10-19T11:26:22;6.07;;;1.20;;
75504;SDS011;64085;54.974;73.410;2023-10-19T11:31:24;4.35;;;1.58;;
75504;SDS011;64085;54.974;73.410;2023-10-19T11:33:52;5.05;;;1.55;;
75504;SDS011;64085;54.974;73.410;2023-10-19T11:36:18;3.00;;;1.30;;
75504;SDS011;64085;54.974;73.410;2023-10-19T11:38:46;3.00;;;1.23;;
75504;SDS011;64085;54.974;73.410;2023-10-19T11:41:12;8.07;;;1.92;;
75504;SDS011;64085;54.974;73.410;2023-10-19T11:43:40;2.65;;;1.70;;
75504;SDS011;64085;54.974;73.410;2023-10-19T11:46:06;5.97;;;2.05;;
75504;SDS011;64085;54.974;73.410;2023-10-19T11:48:33;1.92;;;1.30;;
75504;SDS011;64085;54.974;73.410;2023-10-19T11:50:58;4.32;;;2.05;;
75504;SDS011;64085;54.974;73.410;2023-10-19T11:53:24;4.00;;;1.90;;
75504;SDS011;64085;54.974;73.410;2023-10-19T11:55:49;4.45;;;1.98;;
75504;SDS011;64085;54.974;73.410;2023-10-19T11:58:15;3.00;;;1.52;;
75504;SDS011;64085;54.974;73.410;2023-10-19T12:00:41;4.43;;;2.28;;
75504;SDS011;64085;54.974;73.410;2023-10-19T12:03:11;2.53;;;1.70;;
75504;SDS011;64085;54.974;73.410;2023-10-19T12:05:37;2.78;;;1.42;;
75504;SDS011;64085;54.974;73.410;2023-10-19T12:08:03;7.50;;;2.35;;
75504;SDS011;64085;54.974;73.410;2023-10-19T12:10:28;2.85;;;1.55;;
75504;SDS011;64085;54.974;73.410;2023-10-19T12:13:03;5.05;;;1.48;;
75504;SDS011;64085;54.974;73.410;2023-10-19T12:15:30;3.47;;;1.75;;
75504;SDS011;64085;54.974;73.410;2023-10-19T12:17:56;7.40;;;2.60;;
75504;SDS011;64085;54.974;73.410;2023-10-19T12:20:22;5.72;;;2.25;;
75504;SDS011;64085;54.974;73.410;2023-10-19T12:22:48;4.38;;;2.17;;
75504;SDS011;64085;54.974;73.410;2023-10-19T12:25:13;5.60;;;3.33;;
75504;SDS011;64085;54.974;73.410;2023-10-19T12:27:40;4.78;;;2.70;;
75504;SDS011;64085;54.974;73.410;2023-10-19T12:30:05;5.35;;;2.70;;
75504;SDS011;64085;54.974;73.410;2023-10-19T12:32:42;9.07;;;2.85;;
75504;SDS011;64085;54.974;73.410;2023-10-19T12:35:07;8.50;;;3.90;;
75504;SDS011;64085;54.974;73.410;2023-10-19T12:37:37;7.10;;;4.25;;
75504;SDS011;64085;54.974;73.410;2023-10-19T12:40:08;12.02;;;5.20;;
75504;SDS011;64085;54.974;73.410;2023-10-19T12:42:51;8.15;;;4.20;;
75504;SDS011;64085;54.974;73.410;2023-10-19T12:45:17;12.18;;;5.25;;
75504;SDS011;64085;54.974;73.410;2023-10-19T12:47:44;11.27;;;5.72;;
75504;SDS011;64085;54.974;73.410;2023-10-19T12:50:10;10.75;;;5.10;;
75504;SDS011;64085;54.974;73.410;2023-10-19T12:52:38;13.93;;;6.80;;
75504;SDS011;64085;54.974;73.410;2023-10-19T12:55:05;14.35;;;6.55;;
75504;SDS011;64085;54.974;73.410;2023-10-19T12:57:32;11.27;;;5.78;;
75504;SDS011;64085;54.974;73.410;2023-10-19T12:59:58;14.00;;;5.55;;
75504;SDS011;64085;54.974;73.410;2023-10-19T13:02:27;11.23;;;5.63;;
75504;SDS011;64085;54.974;73.410;2023-10-19T13:04:55;14.00;;;6.22;;
75504;SDS011;64085;54.974;73.410;2023-10-19T13:07:24;9.23;;;5.00;;
75504;SDS011;64085;54.974;73.410;2023-10-19T13:09:51;10.02;;;5.30;;
75504;SDS011;64085;54.974;73.410;2023-10-19T13:12:16;9.57;;;5.75;;
75504;SDS011;64085;54.974;73.410;2023-10-19T13:14:42;13.20;;;7.32;;
75504;SDS011;64085;54.974;73.410;2023-10-19T13:17:09;13.15;;;7.15;;
75504;SDS011;64085;54.974;73.410;2023-10-19T13:19:35;16.67;;;6.70;;
75504;SDS011;64085;54.974;73.410;2023-10-19T13:22:02;13.48;;;7.18;;
75504;SDS011;64085;54.974;73.410;2023-10-19T13:24:30;10.25;;;5.70;;
75504;SDS011;64085;54.974;73.410;2023-10-19T13:26:57;13.15;;;7.28;;
75504;SDS011;64085;54.974;73.410;2023-10-19T13:29:22;13.07;;;7.18;;
75504;SDS011;64085;54.974;73.410;2023-10-19T13:31:49;11.75;;;6.30;;
75504;SDS011;64085;54.974;73.410;2023-10-19T13:34:15;13.18;;;6.78;;
75504;SDS011;64085;54.974;73.410;2023-10-19T13:36:40;11.10;;;5.70;;
75504;SDS011;64085;54.974;73.410;2023-10-19T13:39:06;14.20;;;6.25;;
75504;SDS011;64085;54.974;73.410;2023-10-19T13:41:31;11.70;;;6.75;;
75504;SDS011;64085;54.974;73.410;2023-10-19T13:43:57;14.48;;;6.72;;
75504;SDS011;64085;54.974;73.410;2023-10-19T13:46:22;11.48;;;5.80;;
75504;SDS011;64085;54.974;73.410;2023-10-19T13:48:49;10.32;;;4.82;;
75504;SDS011;64085;54.974;73.410;2023-10-19T13:51:18;13.93;;;6.22;;
75504;SDS011;64085;54.974;73.410;2023-10-19T13:56:12;16.17;;;7.72;;
75504;SDS011;64085;54.974;73.410;2023-10-19T13:58:39;11.80;;;5.90;;
75504;SDS011;64085;54.974;73.410;2023-10-19T14:01:08;11.68;;;5.63;;
75504;SDS011;64085;54.974;73.410;2023-10-19T14:03:34;13.65;;;5.25;;
75504;SDS011;64085;54.974;73.410;2023-10-19T14:05:59;11.48;;;6.07;;
75504;SDS011;64085;54.974;73.410;2023-10-19T14:08:25;12.65;;;6.18;;
75504;SDS011;64085;54.974;73.410;2023-10-19T14:10:51;10.82;;;6.72;;
75504;SDS011;64085;54.974;73.410;2023-10-19T14:13:16;9.90;;;6.38;;
75504;SDS011;64085;54.974;73.410;2023-10-19T14:15:42;14.15;;;7.05;;
75504;SDS011;64085;54.974;73.410;2023-10-19T14:18:07;10.10;;;5.20;;
75504;SDS011;64085;54.974;73.410;2023-10-19T14:20:33;8.93;;;4.72;;
75504;SDS011;64085;54.974;73.410;2023-10-19T14:22:59;11.82;;;5.03;;
75504;SDS011;64085;54.974;73.410;2023-10-19T14:25:25;4.88;;;3.05;;
75504;SDS011;64085;54.974;73.410;2023-10-19T14:27:51;6.28;;;2.83;;
75504;SDS011;64085;54.974;73.410;2023-10-19T14:30:23;7.75;;;4.35;;
75504;SDS011;64085;54.974;73.410;2023-10-19T14:32:48;8.77;;;3.97;;
75504;SDS011;64085;54.974;73.410;2023-10-19T14:35:15;6.80;;;3.70;;
75504;SDS011;64085;54.974;73.410;2023-10-19T14:37:41;9.02;;;3.45;;
75504;SDS011;64085;54.974;73.410;2023-10-19T14:42:35;3.95;;;2.90;;
75504;SDS011;64085;54.974;73.410;2023-10-19T14:45:03;9.68;;;3.00;;
75504;SDS011;64085;54.974;73.410;2023-10-19T14:47:29;6.10;;;2.95;;
75504;SDS011;64085;54.974;73.410;2023-10-19T14:49:54;2.67;;;1.42;;
75504;SDS011;64085;54.974;73.410;2023-10-19T14:52:20;14.90;;;3.55;;
75504;SDS011;64085;54.974;73.410;2023-10-19T14:54:48;3.38;;;2.60;;
75504;SDS011;64085;54.974;73.410;2023-10-19T14:57:15;5.90;;;2.80;;